Bischofshofen, Autriche

03:27 CEST le 17 septembre 2014 (GMT +0200)
Muehlach am Hochkoenig | Change Station
CLOSE
Current Station
Stations météorologiques personnelles
Location: Mühlbach Am Hochkönig, SALZBURG
Altitude: 2785 ft
Stations météo à proximité

Alt. 2785 ft 47.38 °N, 13.13 °E | Updated 4 seconds ago

Partly Cloudy
Partiellement nuageux
47.1 ° F
Paraît 47 ° F
N
0.0
Vent Variable Vent de Ouest
Gusts 0.0 mph

Aujourd'hui
Haut(e) -- | Bas -- ° F
--% Risque de précip.
Hier
Haut(e) -- | Bas -- ° F
Precip. -- pouce
6:46 AM 7:15 PM
Dernier quartier, 41% visible
Pression 29.98 pouce
Visibilité 6.2 Miles terrestres
Nuages Peu 100 ft
Refroidissement éolien 47 ° F
Point de rosée 45 ° F
Humidité 93%
Précipitations 0.00 pouce
Profondeur de la couche neigeuse Non disponible.
UV 0.0 sur 12
Pollen Non disponible.
Qualité de l'air Non disponible.
Flu Activity Non disponible.
METAR LOWS 170120Z AUTO 15003KT 110V240 9999 FEW001 12/11 Q1015

More Conditions Fewer Conditions

Pression 29.98 pouce
Visibilité 6.2 Miles terrestres
Nuages Peu 100 ft
Refroidissement éolien 47 ° F
Point de rosée 45 ° F
Humidité 93%
Précipitations 0.00 pouce
Profondeur de la couche neigeuse Non disponible.
UV 0.0 sur 12
Pollen Non disponible.
Qualité de l'air Non disponible.
Flu Activity Non disponible.
METAR LOWS 170120Z AUTO 15003KT 110V240 9999 FEW001 12/11 Q1015

More Conditions Fewer Conditions

10-Day Weather Forecast

Almanac

Astronomie

Sep. 17, 2014 Lever Coucher
Temps réel 06:46 CEST 19:15 CEST
Crépuscule civil 06:16 CEST 19:46 CEST
Crépuscule nautique 05:39 CEST 20:22 CEST
Crépuscule astronomique 05:01 CEST 21:00 CEST
Lune 00:14 CEST 15:29 CEST
Durée de lumière visible 13h 30m
Longueur du jour
12h 28m
Tomorrow will be 3m 22s shorter.
Dernier quartier, 41% of the Moon is Illuminated
Sep 16
Dernier quartier
Sep 24
Nouveau
Oct 1
Premier quartier
Oct 8
Pleine lune
Oct 15
Dernier quartier

Les extrêmes de température d’hier

Country Highs Country Lows

Community

WunderPhotos

Upload Photos

1,753,943 Photos téléchargées !

Nearby

Qualité de l'air

Not available.

Épaisseur de neige

Not available.

Activité sismique

Ville Distance Mag. Time & Date
No recent earthquake activity has been reported nearby.
Minimum magnitude displayed is 2.5.

Températures des eaux côtières

Lieu Température
Aucun rapport de station

Stations météo à proximité